Sachse's Hourly Summary for Monday, July 9, 2018
Hour Temp
(f)
RH
(%)
Solar Rad.
(MJ/m2)
Rainfall
(in)
Wind
(mph)
7/9/2018 12:00 AM 79 68 0 0 0.44
7/9/2018 1:00 AM 79 72 0 0 0
7/9/2018 2:00 AM 78 75 0 0 0
7/9/2018 3:00 AM 76 79 0 0 0
7/9/2018 4:00 AM 76 82 0 0 0
7/9/2018 5:00 AM 75 83 0 0 0.07
7/9/2018 6:00 AM 75 86 0 0 0
7/9/2018 7:00 AM 75 84 0.03 0 0
7/9/2018 8:00 AM 76 80 0.2 0 0
7/9/2018 9:00 AM 79 68 1.01 0 0.17
7/9/2018 10:00 AM 83 62 1.69 0 0.55
7/9/2018 11:00 AM 84 60 1.71 0 1.97
7/9/2018 12:00 PM 86 54 2.43 0 3.09
7/9/2018 1:00 PM 87 50 2.28 0 3.25
7/9/2018 2:00 PM 87 47 2.69 0 4
7/9/2018 3:00 PM 88 50 2.52 0 4.33
7/9/2018 4:00 PM 87 52 0.85 0 3.16
7/9/2018 5:00 PM 87 54 0.64 0 1.67
7/9/2018 6:00 PM 87 54 1.03 0 3.71
7/9/2018 7:00 PM 86 51 0.72 0 5.53
7/9/2018 8:00 PM 82 65 0.23 0 4.55
7/9/2018 9:00 PM 81 68 0.04 0 4.18
7/9/2018 10:00 PM 80 72 0 0 2.54
7/9/2018 11:00 PM 79 73 0 0 3.13
Data Summary 81 66 18.07 0.00 1.93